Time;durP1;ratioP1;P1;durP2;ratioP2;P2;SDS_P1;SDS_P2;PMS_P1;PMS_P2;Temp;Humidity;BMP_temperature;BMP_pressure;BME280_temperature;BME280_humidity;BME280_pressure;Samples;Min_cycle;Max_cycle;Signal;HPM_P1;HPM_P2
2023/02/22 00:01:49;;;;;;;15.80;3.42;;;;;;;;;;6125886;23;20379;-82
2023/02/22 00:04:20;;;;;;;14.18;3.10;;;;;;;;;;6151986;23;20801;-83
2023/02/22 00:06:48;;;;;;;11.50;2.95;;;;;;;;;;6152592;23;20370;-82
2023/02/22 00:09:21;;;;;;;10.17;3.00;;;;;;;;;;6150285;23;20386;-82
2023/02/22 00:11:49;;;;;;;11.63;3.57;;;;;;;;;;6152666;23;20371;-82
2023/02/22 00:14:25;;;;;;;11.40;3.63;;;;;;;;;;6126036;23;20387;-82
2023/02/22 00:16:58;;;;;;;16.05;3.90;;;;;;;;;;6161054;23;20386;-82
2023/02/22 00:19:32;;;;;;;12.18;3.80;;;;;;;;;;6150465;23;20383;-82
2023/02/22 00:22:06;;;;;;;15.20;4.13;;;;;;;;;;6162070;23;20816;-82
2023/02/22 00:24:34;;;;;;;15.90;4.47;;;;;;;;;;6152397;23;20374;-82
2023/02/22 00:27:07;;;;;;;15.35;4.72;;;;;;;;;;6124853;23;20880;-82
2023/02/22 00:29:35;;;;;;;17.58;5.10;;;;;;;;;;6152039;23;20860;-82
2023/02/22 00:32:08;;;;;;;16.45;5.20;;;;;;;;;;6149683;23;20387;-82
2023/02/22 00:34:37;;;;;;;15.82;5.80;;;;;;;;;;6125416;23;20824;-83
2023/02/22 00:37:10;;;;;;;18.02;6.03;;;;;;;;;;6125403;23;20383;-82
2023/02/22 00:39:46;;;;;;;15.98;6.10;;;;;;;;;;6149397;23;20382;-82
2023/02/22 00:42:20;;;;;;;16.77;6.13;;;;;;;;;;6125118;23;20379;-82
2023/02/22 00:44:53;;;;;;;18.83;6.60;;;;;;;;;;6162078;23;20382;-82
2023/02/22 00:47:20;;;;;;;19.10;6.93;;;;;;;;;;6124723;23;20386;-82
2023/02/22 00:49:49;;;;;;;17.42;6.35;;;;;;;;;;6152261;23;20378;-82
2023/02/22 00:52:22;;;;;;;18.25;6.18;;;;;;;;;;6125250;23;20387;-82
2023/02/22 00:54:50;;;;;;;19.23;6.63;;;;;;;;;;6152013;23;20367;-82
2023/02/22 00:57:24;;;;;;;21.25;6.40;;;;;;;;;;6125345;23;20387;-81
2023/02/22 00:59:52;;;;;;;19.20;6.75;;;;;;;;;;6125638;23;20379;-82
2023/02/22 01:02:20;;;;;;;21.52;7.20;;;;;;;;;;6152028;23;20374;-82
2023/02/22 01:04:48;;;;;;;19.58;8.10;;;;;;;;;;6152393;23;20367;-82
2023/02/22 01:07:23;;;;;;;24.15;7.68;;;;;;;;;;6124385;23;20375;-82
2023/02/22 01:09:53;;;;;;;19.73;7.13;;;;;;;;;;6125773;23;20852;-82
2023/02/22 01:12:21;;;;;;;24.20;7.20;;;;;;;;;;6125455;23;20856;-84
2023/02/22 01:14:49;;;;;;;16.85;6.65;;;;;;;;;;6125617;23;20387;-81
2023/02/22 01:17:22;;;;;;;20.65;6.57;;;;;;;;;;6125083;23;20375;-82
2023/02/22 01:19:50;;;;;;;15.93;6.33;;;;;;;;;;6125363;23;20932;-82
2023/02/22 01:22:18;;;;;;;17.17;6.10;;;;;;;;;;6125618;23;20394;-83
2023/02/22 01:24:52;;;;;;;23.65;6.07;;;;;;;;;;6125757;23;20394;-82
2023/02/22 01:27:20;;;;;;;18.00;5.65;;;;;;;;;;6125140;23;20388;-81
2023/02/22 01:29:49;;;;;;;18.67;5.20;;;;;;;;;;6124983;23;21198;-82
2023/02/22 01:32:22;;;;;;;17.00;5.03;;;;;;;;;;6149649;23;20719;-83
2023/02/22 01:34:56;;;;;;;13.52;5.13;;;;;;;;;;6151660;23;20387;-82
2023/02/22 01:37:28;;;;;;;15.10;5.10;;;;;;;;;;6126154;23;20391;-82
2023/02/22 01:39:58;;;;;;;18.08;5.07;;;;;;;;;;6126670;23;20843;-81
2023/02/22 01:42:26;;;;;;;18.48;5.03;;;;;;;;;;6125960;23;20832;-81
2023/02/22 01:45:17;;;;;;;15.65;5.03;;;;;;;;;;6151006;23;21148;-82
2023/02/22 01:47:50;;;;;;;18.95;5.45;;;;;;;;;;6150663;23;20374;-83
2023/02/22 01:50:23;;;;;;;14.75;4.22;;;;;;;;;;6151118;23;20391;-83
2023/02/22 01:52:51;;;;;;;20.50;4.68;;;;;;;;;;6163161;23;20378;-81
2023/02/22 01:55:25;;;;;;;16.80;4.80;;;;;;;;;;6163146;23;20394;-82
2023/02/22 01:57:53;;;;;;;16.55;4.18;;;;;;;;;;6126447;23;20394;-81
2023/02/22 02:00:27;;;;;;;17.92;4.70;;;;;;;;;;6151575;23;20375;-82
2023/02/22 02:03:01;;;;;;;16.07;4.57;;;;;;;;;;6150658;23;20475;-82
2023/02/22 02:05:30;;;;;;;16.00;4.47;;;;;;;;;;6126815;23;20443;-81
2023/02/22 02:08:02;;;;;;;16.40;4.20;;;;;;;;;;6127207;23;20390;-81
2023/02/22 02:10:36;;;;;;;14.18;4.38;;;;;;;;;;6126897;23;20394;-81
2023/02/22 02:13:10;;;;;;;15.40;4.35;;;;;;;;;;6150953;23;20406;-82
2023/02/22 02:15:38;;;;;;;16.05;4.18;;;;;;;;;;6125852;23;20390;-82
2023/02/22 02:18:11;;;;;;;16.15;4.40;;;;;;;;;;6151050;23;20406;-82
2023/02/22 02:20:44;;;;;;;15.50;4.37;;;;;;;;;;6153401;23;20371;-82
2023/02/22 02:23:44;;;;;;;16.65;5.13;;;;;;;;;;6126422;23;20833;-82
2023/02/22 02:26:37;;;;;;;19.02;4.60;;;;;;;;;;6150571;23;20379;-81
2023/02/22 02:29:20;;;;;;;13.88;4.40;;;;;;;;;;6162823;23;20378;-82
2023/02/22 02:32:05;;;;;;;13.43;4.35;;;;;;;;;;6150479;23;20382;-82
2023/02/22 02:34:43;;;;;;;12.93;4.30;;;;;;;;;;6126160;23;20379;-81
2023/02/22 02:37:21;;;;;;;14.25;5.03;;;;;;;;;;6125956;23;20379;-82
2023/02/22 02:39:58;;;;;;;16.88;4.85;;;;;;;;;;6125869;23;20383;-82
2023/02/22 02:42:34;;;;;;;19.10;4.88;;;;;;;;;;6125760;23;20382;-82
2023/02/22 02:45:07;;;;;;;15.57;4.70;;;;;;;;;;6125714;23;20379;-82
2023/02/22 02:47:43;;;;;;;18.25;5.30;;;;;;;;;;6162184;23;20697;-82
2023/02/22 02:50:15;;;;;;;17.25;5.78;;;;;;;;;;6126494;23;20880;-82
2023/02/22 02:52:48;;;;;;;15.75;5.93;;;;;;;;;;6125594;23;20902;-82
2023/02/22 02:55:17;;;;;;;18.65;5.55;;;;;;;;;;6152956;23;20371;-82
2023/02/22 02:57:45;;;;;;;14.43;5.20;;;;;;;;;;6126313;23;20378;-82
2023/02/22 03:00:22;;;;;;;15.35;6.00;;;;;;;;;;6150530;23;20378;-82
2023/02/22 03:02:57;;;;;;;16.67;5.43;;;;;;;;;;6162238;23;20390;-83
2023/02/22 03:05:35;;;;;;;12.48;4.85;;;;;;;;;;6162854;23;20835;-82
2023/02/22 03:08:07;;;;;;;13.25;4.40;;;;;;;;;;6162772;23;20354;-82
2023/02/22 03:10:43;;;;;;;12.05;4.68;;;;;;;;;;6125688;23;20386;-83
2023/02/22 03:13:16;;;;;;;14.90;4.35;;;;;;;;;;6149163;23;20386;-82
2023/02/22 03:15:50;;;;;;;13.40;4.50;;;;;;;;;;6126013;23;20382;-82
2023/02/22 03:18:27;;;;;;;18.60;4.85;;;;;;;;;;6126114;23;20387;-82
2023/02/22 03:21:09;;;;;;;15.68;5.22;;;;;;;;;;6153106;23;20405;-83
2023/02/22 03:23:42;;;;;;;14.20;4.68;;;;;;;;;;6162196;23;20673;-82
2023/02/22 03:26:22;;;;;;;17.42;4.28;;;;;;;;;;6149890;23;20852;-82
2023/02/22 03:28:54;;;;;;;15.40;4.30;;;;;;;;;;6125165;23;20383;-82
2023/02/22 03:31:24;;;;;;;18.48;4.10;;;;;;;;;;6125391;23;20387;-81
2023/02/22 03:34:01;;;;;;;16.73;4.30;;;;;;;;;;6162183;23;20378;-82
2023/02/22 03:36:31;;;;;;;18.30;4.32;;;;;;;;;;6125652;23;20393;-82
2023/02/22 03:39:06;;;;;;;14.73;3.70;;;;;;;;;;6150762;23;20383;-82
2023/02/22 03:41:40;;;;;;;17.88;3.90;;;;;;;;;;6126813;23;20390;-82
2023/02/22 03:44:14;;;;;;;17.38;5.40;;;;;;;;;;6150195;23;20394;-82
2023/02/22 03:46:48;;;;;;;15.90;5.30;;;;;;;;;;6150413;23;20386;-82
2023/02/22 03:49:29;;;;;;;16.20;5.00;;;;;;;;;;6150227;23;20405;-82
2023/02/22 03:52:04;;;;;;;15.23;4.25;;;;;;;;;;6149817;23;20389;-82
2023/02/22 03:54:38;;;;;;;17.92;4.60;;;;;;;;;;6125828;23;20379;-81
2023/02/22 03:57:10;;;;;;;18.60;4.38;;;;;;;;;;6124857;23;20390;-82
2023/02/22 03:59:44;;;;;;;17.33;4.68;;;;;;;;;;6125826;23;20975;-82
2023/02/22 04:02:17;;;;;;;15.00;4.10;;;;;;;;;;6125733;23;20383;-81
2023/02/22 04:04:47;;;;;;;17.37;4.23;;;;;;;;;;6125018;23;20382;-82
2023/02/22 04:07:15;;;;;;;14.02;3.72;;;;;;;;;;6124931;23;20390;-81
2023/02/22 04:09:43;;;;;;;16.15;3.70;;;;;;;;;;6124682;23;20391;-81
2023/02/22 04:12:12;;;;;;;15.13;3.93;;;;;;;;;;6125625;23;20391;-82
2023/02/22 04:14:59;;;;;;;16.23;3.35;;;;;;;;;;6126259;23;20375;-84
2023/02/22 04:17:32;;;;;;;15.25;3.28;;;;;;;;;;6125137;23;20379;-82
2023/02/22 04:20:02;;;;;;;17.92;3.50;;;;;;;;;;6124859;23;20394;-82
2023/02/22 04:22:43;;;;;;;17.90;3.40;;;;;;;;;;6149763;23;20375;-81
2023/02/22 04:25:12;;;;;;;12.60;3.15;;;;;;;;;;6124856;23;20387;-82
2023/02/22 04:27:47;;;;;;;16.48;3.42;;;;;;;;;;6149636;23;20383;-82
2023/02/22 04:30:18;;;;;;;16.48;3.47;;;;;;;;;;6125524;23;20944;-82
2023/02/22 04:32:47;;;;;;;18.65;3.90;;;;;;;;;;6124591;23;20687;-82
2023/02/22 04:35:22;;;;;;;15.40;3.30;;;;;;;;;;6125278;23;20379;-82
2023/02/22 04:37:55;;;;;;;16.77;3.60;;;;;;;;;;6124955;23;20390;-81
2023/02/22 04:40:28;;;;;;;15.80;3.92;;;;;;;;;;6125420;23;20379;-82
2023/02/22 04:43:01;;;;;;;15.93;3.15;;;;;;;;;;6125042;23;20382;-83
2023/02/22 04:45:29;;;;;;;22.10;3.83;;;;;;;;;;6124888;23;20417;-82
2023/02/22 04:47:57;;;;;;;13.77;4.13;;;;;;;;;;6125942;23;20871;-82
2023/02/22 04:50:27;;;;;;;20.20;4.30;;;;;;;;;;6124757;23;21006;-82
2023/02/22 04:52:55;;;;;;;22.17;4.83;;;;;;;;;;6125467;23;20387;-81
2023/02/22 04:55:23;;;;;;;14.77;3.58;;;;;;;;;;6126006;23;20383;-81
2023/02/22 04:57:56;;;;;;;15.02;4.13;;;;;;;;;;6149715;23;20387;-82
2023/02/22 05:00:29;;;;;;;14.73;4.07;;;;;;;;;;6162083;23;20371;-82
2023/02/22 05:03:00;;;;;;;18.47;4.30;;;;;;;;;;6124994;23;20379;-82
2023/02/22 05:05:35;;;;;;;15.43;3.42;;;;;;;;;;6125568;23;20386;-82
2023/02/22 05:08:08;;;;;;;20.05;3.67;;;;;;;;;;6126808;23;21075;-82
2023/02/22 05:10:40;;;;;;;18.90;3.05;;;;;;;;;;6163017;23;20804;-82
2023/02/22 05:13:13;;;;;;;17.38;3.60;;;;;;;;;;6151240;23;20865;-81
2023/02/22 05:15:41;;;;;;;20.02;3.63;;;;;;;;;;6153319;23;20916;-82
2023/02/22 05:18:09;;;;;;;15.52;3.75;;;;;;;;;;6126191;23;20823;-81
2023/02/22 05:20:38;;;;;;;18.98;3.88;;;;;;;;;;6126756;23;20409;-82
2023/02/22 05:23:11;;;;;;;15.20;3.97;;;;;;;;;;6163086;23;20371;-81
2023/02/22 05:25:39;;;;;;;17.98;4.05;;;;;;;;;;6126574;23;20893;-83
2023/02/22 05:28:13;;;;;;;16.10;3.78;;;;;;;;;;6127639;23;20386;-82
2023/02/22 05:30:45;;;;;;;17.38;3.53;;;;;;;;;;6163612;23;20383;-81
2023/02/22 05:33:18;;;;;;;15.95;3.25;;;;;;;;;;6150590;23;20394;-83
2023/02/22 05:35:54;;;;;;;14.90;3.40;;;;;;;;;;6126396;23;20449;-83
2023/02/22 05:38:28;;;;;;;15.80;3.53;;;;;;;;;;6163297;23;20851;-81
2023/02/22 05:41:00;;;;;;;17.58;3.60;;;;;;;;;;6151199;23;20402;-82
2023/02/22 05:43:33;;;;;;;15.80;3.50;;;;;;;;;;6150494;23;20697;-82
2023/02/22 05:46:06;;;;;;;14.67;3.87;;;;;;;;;;6150849;23;20390;-82
2023/02/22 05:48:39;;;;;;;20.25;4.22;;;;;;;;;;6127128;23;20412;-81
2023/02/22 05:51:13;;;;;;;16.42;3.83;;;;;;;;;;6126925;23;20386;-82
2023/02/22 05:53:46;;;;;;;18.75;3.90;;;;;;;;;;6126474;23;20391;-82
2023/02/22 05:56:22;;;;;;;16.48;4.13;;;;;;;;;;6126480;23;20386;-82
2023/02/22 05:58:50;;;;;;;16.45;4.20;;;;;;;;;;6153574;23;20758;-82
2023/02/22 06:01:23;;;;;;;16.33;4.47;;;;;;;;;;6126450;23;20391;-83
2023/02/22 06:03:56;;;;;;;17.90;3.92;;;;;;;;;;6123604;23;20712;-81
2023/02/22 06:06:30;;;;;;;13.68;3.60;;;;;;;;;;6149479;23;20698;-82
2023/02/22 06:08:58;;;;;;;20.45;4.20;;;;;;;;;;6126154;23;20394;-81
2023/02/22 06:11:31;;;;;;;19.02;4.20;;;;;;;;;;6150444;23;20386;-82
2023/02/22 06:14:03;;;;;;;17.58;4.32;;;;;;;;;;6125893;23;20430;-82
2023/02/22 06:16:31;;;;;;;17.20;4.07;;;;;;;;;;6126682;23;20851;-82
2023/02/22 06:18:59;;;;;;;16.90;4.30;;;;;;;;;;6152649;23;20374;-82
2023/02/22 06:21:33;;;;;;;17.38;4.38;;;;;;;;;;6163248;23;20382;-82
2023/02/22 06:24:02;;;;;;;17.63;3.78;;;;;;;;;;6152697;23;20381;-83
2023/02/22 06:26:35;;;;;;;15.00;4.15;;;;;;;;;;6149816;23;20467;-82
2023/02/22 06:29:04;;;;;;;11.25;3.58;;;;;;;;;;6126037;23;20386;-81
2023/02/22 06:31:32;;;;;;;16.63;3.92;;;;;;;;;;6126834;23;20382;-82
2023/02/22 06:34:00;;;;;;;15.30;4.88;;;;;;;;;;6125450;23;20395;-82
2023/02/22 06:36:28;;;;;;;21.40;5.65;;;;;;;;;;6149947;23;20383;-82
2023/02/22 06:38:57;;;;;;;17.70;5.20;;;;;;;;;;6124944;23;20383;-82
2023/02/22 06:41:30;;;;;;;15.27;5.00;;;;;;;;;;6161664;23;20375;-82
2023/02/22 06:44:02;;;;;;;17.98;4.78;;;;;;;;;;6161705;23;20685;-81
2023/02/22 06:46:35;;;;;;;16.20;4.65;;;;;;;;;;6162537;23;20390;-81
2023/02/22 06:49:08;;;;;;;18.45;4.50;;;;;;;;;;6162332;23;20849;-82
2023/02/22 06:51:41;;;;;;;16.13;4.80;;;;;;;;;;6126258;23;20387;-82
2023/02/22 06:54:15;;;;;;;17.77;5.20;;;;;;;;;;6161553;23;20398;-81
2023/02/22 06:56:43;;;;;;;15.60;5.38;;;;;;;;;;6125306;23;20386;-81
2023/02/22 06:59:11;;;;;;;15.25;5.40;;;;;;;;;;6152067;23;20548;-83
2023/02/22 07:01:40;;;;;;;20.98;5.53;;;;;;;;;;6123704;23;20394;-82
2023/02/22 07:04:08;;;;;;;17.35;5.68;;;;;;;;;;6124800;23;20386;-81
2023/02/22 07:06:44;;;;;;;16.65;5.82;;;;;;;;;;6148798;23;20406;-82
2023/02/22 07:09:12;;;;;;;18.98;6.22;;;;;;;;;;6125150;23;20843;-81
2023/02/22 07:11:46;;;;;;;18.27;6.35;;;;;;;;;;6162407;23;21004;-82
2023/02/22 07:14:19;;;;;;;17.52;6.32;;;;;;;;;;6124800;23;20387;-82
2023/02/22 07:16:52;;;;;;;19.23;6.50;;;;;;;;;;6161729;23;20386;-81
2023/02/22 07:19:24;;;;;;;18.02;6.30;;;;;;;;;;6125228;23;20402;-82
2023/02/22 07:21:58;;;;;;;22.75;6.57;;;;;;;;;;6125797;23;20391;-82
2023/02/22 07:24:30;;;;;;;17.23;6.90;;;;;;;;;;6124999;23;20390;-82
2023/02/22 07:27:05;;;;;;;16.37;6.63;;;;;;;;;;6126019;23;20849;-82
2023/02/22 07:29:37;;;;;;;19.77;6.93;;;;;;;;;;6123447;23;20379;-82
2023/02/22 07:32:10;;;;;;;18.17;7.07;;;;;;;;;;6123880;23;20451;-83
2023/02/22 07:34:43;;;;;;;19.40;7.15;;;;;;;;;;6161335;23;20685;-82
2023/02/22 07:37:11;;;;;;;17.63;7.05;;;;;;;;;;6124024;23;20409;-83
2023/02/22 07:39:44;;;;;;;20.05;7.55;;;;;;;;;;6148832;23;20383;-82
2023/02/22 07:42:18;;;;;;;19.10;7.82;;;;;;;;;;6161982;23;20371;-83
2023/02/22 07:44:51;;;;;;;22.92;8.60;;;;;;;;;;6124830;23;20397;-82
2023/02/22 07:47:19;;;;;;;20.80;8.50;;;;;;;;;;6151008;23;20374;-82
2023/02/22 07:49:47;;;;;;;18.83;8.23;;;;;;;;;;6124758;23;20783;-82
2023/02/22 07:52:16;;;;;;;22.60;8.77;;;;;;;;;;6151816;23;20674;-82
2023/02/22 07:54:49;;;;;;;22.20;8.88;;;;;;;;;;6149761;23;20391;-81
2023/02/22 07:57:23;;;;;;;24.20;10.13;;;;;;;;;;6148390;23;20398;-81
2023/02/22 07:59:56;;;;;;;24.35;10.40;;;;;;;;;;6161109;23;20379;-81
2023/02/22 08:02:25;;;;;;;23.80;9.90;;;;;;;;;;6150904;23;20362;-82
2023/02/22 08:04:58;;;;;;;23.85;10.05;;;;;;;;;;6161455;23;20395;-81
2023/02/22 08:07:26;;;;;;;22.42;9.68;;;;;;;;;;6147192;23;20710;-82
2023/02/22 08:09:59;;;;;;;23.92;9.98;;;;;;;;;;6161821;23;20379;-82
2023/02/22 08:12:28;;;;;;;25.60;10.40;;;;;;;;;;6124018;23;20394;-82
2023/02/22 08:15:00;;;;;;;28.33;10.50;;;;;;;;;;6123646;23;20387;-84
2023/02/22 08:17:37;;;;;;;27.67;10.80;;;;;;;;;;6123042;23;20712;-83
2023/02/22 08:20:10;;;;;;;28.08;11.05;;;;;;;;;;6153253;23;20730;-83
2023/02/22 08:22:39;;;;;;;26.13;10.67;;;;;;;;;;6144371;23;20379;-82
2023/02/22 08:25:11;;;;;;;26.63;10.77;;;;;;;;;;6159970;23;20382;-82
2023/02/22 08:27:41;;;;;;;28.45;11.52;;;;;;;;;;6122492;23;21171;-82
2023/02/22 08:30:15;;;;;;;25.65;11.13;;;;;;;;;;6148127;23;20413;-82
2023/02/22 08:32:48;;;;;;;25.10;10.73;;;;;;;;;;6149426;23;20398;-83
2023/02/22 08:35:21;;;;;;;26.70;10.37;;;;;;;;;;6149449;23;20395;-82
2023/02/22 08:37:55;;;;;;;24.35;9.77;;;;;;;;;;6149092;23;20386;-82
2023/02/22 08:40:24;;;;;;;26.70;9.80;;;;;;;;;;6105174;23;20418;-82
2023/02/22 08:42:53;;;;;;;28.07;9.60;;;;;;;;;;6133913;23;20391;-82
2023/02/22 08:45:26;;;;;;;24.83;9.85;;;;;;;;;;6149503;23;20379;-82
2023/02/22 08:48:00;;;;;;;25.15;10.70;;;;;;;;;;6103265;23;20440;-84
2023/02/22 08:50:28;;;;;;;30.83;10.07;;;;;;;;;;6135980;23;20370;-82
2023/02/22 08:52:58;;;;;;;25.10;9.32;;;;;;;;;;6137657;23;20387;-83
2023/02/22 08:55:27;;;;;;;24.55;9.55;;;;;;;;;;6134053;23;21016;-82
2023/02/22 08:58:02;;;;;;;28.15;10.18;;;;;;;;;;6106605;23;20875;-82
2023/02/22 09:00:31;;;;;;;20.67;8.98;;;;;;;;;;6144015;23;20389;-82
2023/02/22 09:03:00;;;;;;;21.97;8.93;;;;;;;;;;6137806;23;20375;-83
2023/02/22 09:05:29;;;;;;;22.15;9.20;;;;;;;;;;6133591;23;20371;-83
2023/02/22 09:08:02;;;;;;;23.25;9.30;;;;;;;;;;6135072;23;20393;-83
2023/02/22 09:10:35;;;;;;;21.08;8.75;;;;;;;;;;6106873;23;20395;-83
2023/02/22 09:13:05;;;;;;;21.98;8.57;;;;;;;;;;6135700;23;20375;-82
2023/02/22 09:15:38;;;;;;;22.33;9.00;;;;;;;;;;6107931;23;20386;-83
2023/02/22 09:18:13;;;;;;;19.58;8.20;;;;;;;;;;6109427;23;20394;-83
2023/02/22 09:20:41;;;;;;;22.43;8.70;;;;;;;;;;6111470;23;20386;-83
2023/02/22 09:23:09;;;;;;;19.58;8.57;;;;;;;;;;6136467;23;20779;-84
2023/02/22 09:25:39;;;;;;;18.48;8.02;;;;;;;;;;6135364;23;20367;-84
2023/02/22 09:28:13;;;;;;;20.33;8.15;;;;;;;;;;6115337;23;20410;-82
2023/02/22 09:30:47;;;;;;;18.85;8.43;;;;;;;;;;6114768;23;20390;-84
2023/02/22 09:33:20;;;;;;;20.00;8.15;;;;;;;;;;6148880;23;20382;-83
2023/02/22 09:35:48;;;;;;;18.02;7.88;;;;;;;;;;6114166;23;20395;-83
2023/02/22 09:38:17;;;;;;;17.77;7.97;;;;;;;;;;6109511;23;20663;-81
2023/02/22 09:40:46;;;;;;;19.88;8.00;;;;;;;;;;6109244;23;20398;-81
2023/02/22 09:43:31;;;;;;;17.67;7.15;;;;;;;;;;6106805;23;20379;-82
2023/02/22 09:46:12;;;;;;;16.42;7.30;;;;;;;;;;6109047;23;20387;-83
2023/02/22 09:48:51;;;;;;;17.52;7.40;;;;;;;;;;6132857;23;20387;-84
2023/02/22 09:51:26;;;;;;;17.02;7.28;;;;;;;;;;6111025;23;21050;-83
2023/02/22 09:54:01;;;;;;;17.13;7.45;;;;;;;;;;6112329;23;20379;-84
2023/02/22 09:56:29;;;;;;;16.55;7.15;;;;;;;;;;6107784;23;20391;-84
2023/02/22 09:59:02;;;;;;;19.33;7.70;;;;;;;;;;6106723;23;20390;-83
2023/02/22 10:01:39;;;;;;;18.08;7.47;;;;;;;;;;6139999;23;20387;-83
2023/02/22 10:04:17;;;;;;;18.98;8.20;;;;;;;;;;6128745;23;20878;-83
2023/02/22 10:07:00;;;;;;;19.98;8.07;;;;;;;;;;6132975;23;20386;-83
2023/02/22 10:09:29;;;;;;;16.52;7.20;;;;;;;;;;6136648;23;20863;-83
2023/02/22 10:11:58;;;;;;;15.32;7.07;;;;;;;;;;6109989;23;20382;-82
2023/02/22 10:14:34;;;;;;;18.10;7.25;;;;;;;;;;6135225;23;20367;-82
2023/02/22 10:17:05;;;;;;;18.23;7.22;;;;;;;;;;6144974;23;20387;-83
2023/02/22 10:19:43;;;;;;;17.35;7.78;;;;;;;;;;6113857;23;20720;-84
2023/02/22 10:22:20;;;;;;;16.95;7.45;;;;;;;;;;6109840;23;20383;-82
2023/02/22 10:24:56;;;;;;;19.35;9.05;;;;;;;;;;6145783;23;20451;-82
2023/02/22 10:27:31;;;;;;;19.58;8.80;;;;;;;;;;6145627;23;20677;-84
2023/02/22 10:30:03;;;;;;;19.03;8.07;;;;;;;;;;6132539;23;20371;-83
2023/02/22 10:32:44;;;;;;;18.80;8.60;;;;;;;;;;6142906;23;20375;-83
2023/02/22 10:35:20;;;;;;;21.50;8.73;;;;;;;;;;6108776;23;20972;-82
2023/02/22 10:37:54;;;;;;;20.42;8.60;;;;;;;;;;6109810;23;20413;-84
2023/02/22 10:40:30;;;;;;;26.92;10.75;;;;;;;;;;6115051;23;20383;-84
2023/02/22 10:43:01;;;;;;;30.58;12.38;;;;;;;;;;6131117;23;20387;-85
2023/02/22 10:45:31;;;;;;;26.33;10.50;;;;;;;;;;6136608;23;20383;-82
2023/02/22 10:48:01;;;;;;;26.67;10.45;;;;;;;;;;6136893;23;20386;-83
2023/02/22 10:50:30;;;;;;;25.48;10.80;;;;;;;;;;6139259;23;21177;-83
2023/02/22 10:53:03;;;;;;;23.67;10.43;;;;;;;;;;6132694;23;20394;-82
2023/02/22 10:55:36;;;;;;;22.83;10.20;;;;;;;;;;6134866;23;20383;-82
2023/02/22 10:58:09;;;;;;;22.98;9.85;;;;;;;;;;6135176;23;20390;-82
2023/02/22 11:00:43;;;;;;;23.85;9.88;;;;;;;;;;6109021;23;20401;-83
2023/02/22 11:03:17;;;;;;;24.58;10.35;;;;;;;;;;6110270;23;20386;-83
2023/02/22 11:05:45;;;;;;;25.42;10.18;;;;;;;;;;6132161;23;20398;-83
2023/02/22 11:08:14;;;;;;;22.07;9.60;;;;;;;;;;6132845;23;20382;-84
2023/02/22 11:10:48;;;;;;;25.70;10.48;;;;;;;;;;6142394;23;20952;-84
2023/02/22 11:13:24;;;;;;;22.83;9.82;;;;;;;;;;6109440;23;20390;-82
2023/02/22 11:15:54;;;;;;;23.50;9.98;;;;;;;;;;6131978;23;20387;-84
2023/02/22 11:18:30;;;;;;;24.88;10.18;;;;;;;;;;6109771;23;20378;-83
2023/02/22 11:20:59;;;;;;;23.50;10.13;;;;;;;;;;6129020;23;20382;-82
2023/02/22 11:23:27;;;;;;;21.60;9.18;;;;;;;;;;6136341;23;20375;-83
2023/02/22 11:26:02;;;;;;;20.40;8.98;;;;;;;;;;6142097;23;20382;-85
2023/02/22 11:28:33;;;;;;;22.48;9.93;;;;;;;;;;6103045;23;20386;-83
2023/02/22 11:31:13;;;;;;;24.42;10.20;;;;;;;;;;6104231;23;20394;-83
2023/02/22 11:33:46;;;;;;;21.65;9.68;;;;;;;;;;6132925;23;20832;-84
2023/02/22 11:36:29;;;;;;;21.63;9.60;;;;;;;;;;6108691;23;20463;-83
2023/02/22 11:39:04;;;;;;;20.98;9.40;;;;;;;;;;6130331;23;20379;-84
2023/02/22 11:41:33;;;;;;;23.17;9.23;;;;;;;;;;6109174;23;20387;-82
2023/02/22 11:44:14;;;;;;;20.53;9.40;;;;;;;;;;6113791;23;20394;-81
2023/02/22 11:46:44;;;;;;;21.95;9.30;;;;;;;;;;6107237;23;20394;-83
2023/02/22 11:49:12;;;;;;;22.80;9.50;;;;;;;;;;6130238;23;20436;-83
2023/02/22 11:51:49;;;;;;;21.25;9.25;;;;;;;;;;6101379;23;20898;-83
2023/02/22 11:54:31;;;;;;;20.58;9.18;;;;;;;;;;6104128;23;20391;-83
2023/02/22 11:57:06;;;;;;;20.60;9.33;;;;;;;;;;6127113;23;21058;-83
2023/02/22 11:59:36;;;;;;;21.05;8.90;;;;;;;;;;6142851;23;20370;-83
2023/02/22 12:02:19;;;;;;;21.20;9.10;;;;;;;;;;6145777;23;20374;-83
2023/02/22 12:04:57;;;;;;;18.97;8.70;;;;;;;;;;6103378;23;20435;-83
2023/02/22 12:07:34;;;;;;;22.48;9.23;;;;;;;;;;6106278;23;20387;-84
2023/02/22 12:10:05;;;;;;;20.27;9.55;;;;;;;;;;6111607;23;20398;-83
2023/02/22 12:12:39;;;;;;;19.95;9.32;;;;;;;;;;6107399;23;21151;-83
2023/02/22 12:15:12;;;;;;;25.08;9.85;;;;;;;;;;6103989;23;20382;-82
2023/02/22 12:17:50;;;;;;;26.10;10.05;;;;;;;;;;6104398;23;20387;-83
2023/02/22 12:20:21;;;;;;;25.38;10.13;;;;;;;;;;6122471;23;20398;-83
2023/02/22 12:22:54;;;;;;;23.10;10.02;;;;;;;;;;6110490;23;20383;-83
2023/02/22 12:25:29;;;;;;;20.95;9.75;;;;;;;;;;6148900;23;20383;-84
2023/02/22 12:27:58;;;;;;;23.48;10.02;;;;;;;;;;6107015;23;20375;-83
2023/02/22 12:30:28;;;;;;;21.77;10.30;;;;;;;;;;6130331;23;20387;-83
2023/02/22 12:32:59;;;;;;;21.63;9.80;;;;;;;;;;6132503;23;20371;-84
2023/02/22 12:35:28;;;;;;;22.33;9.82;;;;;;;;;;6105979;23;20978;-84
2023/02/22 12:38:00;;;;;;;20.90;9.93;;;;;;;;;;6133425;23;20394;-84
2023/02/22 12:40:34;;;;;;;23.15;10.27;;;;;;;;;;6147865;23;20367;-84
2023/02/22 12:43:06;;;;;;;24.23;10.18;;;;;;;;;;6132048;23;20386;-84
2023/02/22 12:45:41;;;;;;;22.15;10.13;;;;;;;;;;6132528;23;20383;-84
2023/02/22 12:48:20;;;;;;;23.17;10.17;;;;;;;;;;6147874;23;20363;-83
2023/02/22 12:50:55;;;;;;;21.38;9.95;;;;;;;;;;6128898;23;20386;-85
2023/02/22 12:53:26;;;;;;;22.27;9.60;;;;;;;;;;6103830;23;20398;-84
2023/02/22 12:55:57;;;;;;;22.48;10.20;;;;;;;;;;6147972;23;20693;-84
2023/02/22 12:58:27;;;;;;;22.13;9.77;;;;;;;;;;6133827;23;20378;-84
2023/02/22 13:01:02;;;;;;;23.48;10.30;;;;;;;;;;6144257;23;20383;-85
2023/02/22 13:03:35;;;;;;;21.85;10.02;;;;;;;;;;6127864;23;20391;-83
2023/02/22 13:06:14;;;;;;;21.80;10.00;;;;;;;;;;6142484;23;20375;-84
2023/02/22 13:08:53;;;;;;;21.05;9.52;;;;;;;;;;6136433;23;20379;-85
2023/02/22 13:11:25;;;;;;;21.73;9.48;;;;;;;;;;6131334;23;20677;-83
2023/02/22 13:14:00;;;;;;;20.83;9.40;;;;;;;;;;6145009;23;20371;-86
2023/02/22 13:16:39;;;;;;;20.25;9.23;;;;;;;;;;6107685;23;20397;-85
2023/02/22 13:19:21;;;;;;;19.48;9.13;;;;;;;;;;6134624;23;20394;-83
2023/02/22 13:21:56;;;;;;;20.52;9.38;;;;;;;;;;6141305;23;20367;-84
2023/02/22 13:24:27;;;;;;;21.45;9.45;;;;;;;;;;6105748;23;20387;-83
2023/02/22 13:27:01;;;;;;;20.73;9.27;;;;;;;;;;6108630;23;20398;-83
2023/02/22 13:29:36;;;;;;;19.52;9.23;;;;;;;;;;6110247;23;20874;-84
2023/02/22 13:32:12;;;;;;;20.27;9.02;;;;;;;;;;6100003;23;20398;-84
2023/02/22 13:35:04;;;;;;;20.38;9.40;;;;;;;;;;6109390;23;20383;-83
2023/02/22 13:38:01;;;;;;;20.33;9.27;;;;;;;;;;6111984;23;20398;-84
2023/02/22 13:40:45;;;;;;;19.23;8.57;;;;;;;;;;6136920;23;20413;-82
2023/02/22 13:43:30;;;;;;;20.63;8.63;;;;;;;;;;6110788;23;20398;-84
2023/02/22 13:46:33;;;;;;;16.35;7.75;;;;;;;;;;6131126;23;20386;-83
2023/02/22 13:49:13;;;;;;;20.00;8.40;;;;;;;;;;6082215;23;20390;-83
2023/02/22 13:51:48;;;;;;;16.67;7.82;;;;;;;;;;6128240;23;20401;-83
2023/02/22 13:54:20;;;;;;;16.38;7.70;;;;;;;;;;6106764;23;20390;-84
2023/02/22 13:56:50;;;;;;;17.13;7.82;;;;;;;;;;6111791;23;20394;-84
2023/02/22 13:59:23;;;;;;;17.77;8.43;;;;;;;;;;6136382;23;20390;-82
2023/02/22 14:01:53;;;;;;;17.27;8.25;;;;;;;;;;6132951;23;20391;-84
2023/02/22 14:04:32;;;;;;;21.88;8.55;;;;;;;;;;6106947;23;20383;-84
2023/02/22 14:07:01;;;;;;;17.58;8.18;;;;;;;;;;6144125;23;20371;-83
2023/02/22 14:09:47;;;;;;;18.80;8.35;;;;;;;;;;6107473;23;20383;-83
2023/02/22 14:12:44;;;;;;;17.80;8.05;;;;;;;;;;6111638;23;20390;-84
2023/02/22 14:15:17;;;;;;;18.20;8.63;;;;;;;;;;6123587;23;20402;-83
2023/02/22 14:17:46;;;;;;;18.08;8.32;;;;;;;;;;6111967;23;20387;-83
2023/02/22 14:20:28;;;;;;;16.93;7.80;;;;;;;;;;6132022;23;20379;-85
2023/02/22 14:22:57;;;;;;;17.00;8.20;;;;;;;;;;6146628;23;20374;-81
2023/02/22 14:25:35;;;;;;;17.95;8.90;;;;;;;;;;6135655;23;20378;-83
2023/02/22 14:28:09;;;;;;;17.83;8.00;;;;;;;;;;6147345;23;20381;-85
2023/02/22 14:30:42;;;;;;;20.13;8.90;;;;;;;;;;6140312;23;20383;-82
2023/02/22 14:33:29;;;;;;;16.57;8.20;;;;;;;;;;6104932;23;20391;-87
2023/02/22 14:36:03;;;;;;;16.48;8.23;;;;;;;;;;6140149;23;20387;-83
2023/02/22 14:38:36;;;;;;;17.83;8.75;;;;;;;;;;6134723;23;20398;-85
2023/02/22 14:41:08;;;;;;;18.48;8.02;;;;;;;;;;6136236;23;20378;-85
2023/02/22 14:43:36;;;;;;;15.73;7.85;;;;;;;;;;6106855;23;20387;-86
2023/02/22 14:46:11;;;;;;;17.27;8.07;;;;;;;;;;6107943;23;20391;-82
2023/02/22 14:48:41;;;;;;;18.45;8.13;;;;;;;;;;6110311;23;20681;-82
2023/02/22 14:51:16;;;;;;;17.67;7.63;;;;;;;;;;6110896;23;20391;-81
2023/02/22 14:53:46;;;;;;;18.70;8.50;;;;;;;;;;6111123;23;21272;-84
2023/02/22 14:56:22;;;;;;;18.58;8.13;;;;;;;;;;6133776;23;20398;-86
2023/02/22 14:58:58;;;;;;;19.30;9.02;;;;;;;;;;6111331;23;20386;-85
2023/02/22 15:01:29;;;;;;;18.95;9.45;;;;;;;;;;6144400;23;21315;-87
2023/02/22 15:03:57;;;;;;;19.23;8.38;;;;;;;;;;6107616;23;20391;-85